Time;durP1;ratioP1;P1;durP2;ratioP2;P2;SDS_P1;SDS_P2;PMS_P1;PMS_P2;Temp;Humidity;BMP_temperature;BMP_pressure;BME280_temperature;BME280_humidity;BME280_pressure;Samples;Min_cycle;Max_cycle;Signal;HPM_P1;HPM_P2
2024/04/07 00:00:36;;;;;;;2.47;1.60;;;20.20;94.90;;;;;;4141075;28;20033;-59
2024/04/07 00:02:37;;;;;;;2.97;1.75;;;20.20;94.10;;;;;;4145177;28;20378;-59
2024/04/07 00:04:37;;;;;;;2.28;1.50;;;20.20;94.50;;;;;;4139704;28;20046;-59
2024/04/07 00:06:38;;;;;;;5.18;2.03;;;20.20;94.30;;;;;;4139843;28;20109;-63
2024/04/07 00:08:38;;;;;;;2.85;1.50;;;20.20;94.00;;;;;;4144156;28;20421;-65
2024/04/07 00:10:39;;;;;;;2.55;1.42;;;20.30;94.60;;;;;;4139771;28;20557;-66
2024/04/07 00:12:40;;;;;;;5.35;1.48;;;20.30;94.50;;;;;;4133119;28;20048;-66
2024/04/07 00:14:44;;;;;;;2.45;1.45;;;20.20;94.30;;;;;;4134046;28;20034;-65
2024/04/07 00:16:45;;;;;;;3.38;1.70;;;20.20;94.60;;;;;;4137318;28;20483;-66
2024/04/07 00:18:46;;;;;;;2.40;1.52;;;20.20;94.10;;;;;;4141446;28;20033;-65
2024/04/07 00:20:47;;;;;;;2.22;1.48;;;20.20;94.10;;;;;;4145695;28;20099;-65
2024/04/07 00:22:47;;;;;;;4.13;1.50;;;20.20;94.40;;;;;;4135437;28;20030;-66
2024/04/07 00:24:49;;;;;;;7.20;2.10;;;20.20;94.10;;;;;;4135227;28;20402;-65
2024/04/07 00:26:50;;;;;;;2.97;1.52;;;20.20;94.30;;;;;;4134005;28;20045;-65
2024/04/07 00:28:51;;;;;;;2.33;1.30;;;20.20;94.40;;;;;;4140670;28;20506;-66
2024/04/07 00:30:51;;;;;;;6.30;1.65;;;20.20;94.50;;;;;;4135236;28;20026;-65
2024/04/07 00:32:52;;;;;;;4.18;1.73;;;20.10;94.40;;;;;;4144681;28;20437;-66
2024/04/07 00:34:55;;;;;;;2.45;1.48;;;20.10;94.30;;;;;;4144249;28;20080;-66
2024/04/07 00:36:56;;;;;;;2.40;1.50;;;20.10;94.10;;;;;;4144261;28;20449;-65
2024/04/07 00:38:57;;;;;;;3.33;1.65;;;20.10;94.20;;;;;;4141655;28;20038;-65
2024/04/07 00:40:59;;;;;;;3.60;1.42;;;20.10;94.50;;;;;;4138434;28;20584;-66
2024/04/07 00:42:59;;;;;;;5.60;1.35;;;20.10;94.40;;;;;;4143514;28;20029;-65
2024/04/07 00:45:00;;;;;;;4.03;1.67;;;20.10;94.50;;;;;;4140130;28;20092;-66
2024/04/07 00:47:00;;;;;;;4.32;1.35;;;20.10;94.70;;;;;;4132970;28;20039;-65
2024/04/07 00:49:01;;;;;;;2.97;1.30;;;20.10;94.40;;;;;;4142851;28;20042;-66
2024/04/07 00:51:03;;;;;;;4.72;1.60;;;20.00;94.80;;;;;;4143659;28;20058;-65
2024/04/07 00:53:04;;;;;;;2.92;1.35;;;20.00;94.70;;;;;;4130161;28;20129;-66
2024/04/07 00:55:07;;;;;;;2.13;1.15;;;20.00;94.80;;;;;;4140668;28;20401;-66
2024/04/07 00:57:10;;;;;;;2.95;1.55;;;20.00;94.90;;;;;;4144019;28;20038;-65
2024/04/07 00:59:11;;;;;;;3.22;1.60;;;20.00;94.70;;;;;;4135125;28;20036;-66
2024/04/07 01:01:12;;;;;;;4.03;1.60;;;20.00;94.50;;;;;;4150424;28;20037;-66
2024/04/07 01:03:15;;;;;;;3.85;1.45;;;19.90;94.50;;;;;;4144108;28;20505;-66
2024/04/07 01:05:16;;;;;;;2.42;1.40;;;19.90;94.80;;;;;;4143387;28;20402;-65
2024/04/07 01:07:17;;;;;;;1.50;1.05;;;19.90;95.00;;;;;;4134873;28;20039;-66
2024/04/07 01:09:19;;;;;;;3.83;1.45;;;20.00;95.60;;;;;;4132212;28;20523;-66
2024/04/07 01:11:25;;;;;;;4.65;1.48;;;19.90;95.10;;;;;;4142531;28;20041;-66
2024/04/07 01:13:28;;;;;;;6.18;1.38;;;19.90;95.00;;;;;;4145471;28;20328;-66
2024/04/07 01:15:29;;;;;;;3.63;1.60;;;19.90;95.30;;;;;;4142777;28;20121;-66
2024/04/07 01:17:30;;;;;;;3.17;1.30;;;19.90;95.60;;;;;;4143649;28;20509;-68
2024/04/07 01:19:34;;;;;;;2.80;1.43;;;19.80;95.40;;;;;;4129619;28;20570;-68
2024/04/07 01:21:35;;;;;;;2.42;1.55;;;19.90;95.50;;;;;;4142958;28;20086;-68
2024/04/07 01:23:36;;;;;;;3.75;1.70;;;19.80;95.60;;;;;;4143895;28;20117;-68
2024/04/07 01:25:36;;;;;;;2.88;1.48;;;19.80;95.80;;;;;;4137748;28;20036;-68
2024/04/07 01:27:37;;;;;;;2.25;1.17;;;19.80;95.40;;;;;;4145094;28;20479;-68
2024/04/07 01:29:37;;;;;;;4.00;1.50;;;19.80;95.50;;;;;;4137073;28;20069;-68
2024/04/07 01:31:38;;;;;;;3.90;1.35;;;19.80;95.80;;;;;;4143722;28;20037;-68
2024/04/07 01:33:39;;;;;;;2.88;1.25;;;19.80;95.40;;;;;;4145518;28;20038;-68
2024/04/07 01:35:40;;;;;;;2.75;1.45;;;19.80;95.60;;;;;;4136318;28;20030;-68
2024/04/07 01:37:41;;;;;;;2.88;1.60;;;19.80;95.70;;;;;;4143547;28;20505;-68
2024/04/07 01:39:41;;;;;;;4.90;1.50;;;19.80;95.10;;;;;;4131450;28;20036;-68
2024/04/07 01:41:42;;;;;;;4.70;1.40;;;19.80;95.50;;;;;;4142054;28;20073;-68
2024/04/07 01:43:43;;;;;;;4.07;1.40;;;19.80;95.70;;;;;;4140367;28;20125;-68
2024/04/07 01:45:43;;;;;;;6.93;2.03;;;19.80;95.80;;;;;;4133099;28;20130;-68
2024/04/07 01:47:44;;;;;;;4.88;1.63;;;19.80;95.40;;;;;;4136990;28;20036;-68
2024/04/07 01:49:44;;;;;;;3.53;1.15;;;19.80;96.10;;;;;;4145764;28;20501;-68
2024/04/07 01:51:45;;;;;;;2.70;1.33;;;19.80;96.20;;;;;;4138323;28;20121;-66
2024/04/07 01:53:45;;;;;;;4.97;1.42;;;19.80;95.80;;;;;;4131429;28;20053;-67
2024/04/07 01:55:46;;;;;;;5.03;1.73;;;19.80;96.20;;;;;;4132606;28;20042;-67
2024/04/07 01:57:47;;;;;;;3.53;1.55;;;19.80;96.40;;;;;;4140217;28;20092;-68
2024/04/07 01:59:47;;;;;;;5.93;1.40;;;19.80;97.00;;;;;;4139241;28;20038;-68
2024/04/07 02:01:48;;;;;;;3.13;1.10;;;19.80;97.00;;;;;;4143010;28;20386;-68
2024/04/07 02:03:48;;;;;;;4.97;1.45;;;19.80;97.20;;;;;;4138235;28;20038;-68
2024/04/07 02:05:49;;;;;;;6.78;1.58;;;19.70;97.00;;;;;;4139418;28;20038;-68
2024/04/07 02:07:49;;;;;;;5.78;2.08;;;19.70;97.90;;;;;;4144295;28;20042;-68
2024/04/07 02:09:50;;;;;;;2.55;1.55;;;19.70;97.60;;;;;;4135284;28;20034;-68
2024/04/07 02:11:51;;;;;;;5.93;2.35;;;19.70;98.70;;;;;;4142664;28;20033;-68
2024/04/07 02:13:52;;;;;;;4.95;1.20;;;19.70;98.10;;;;;;4136930;28;20399;-69
2024/04/07 02:15:55;;;;;;;3.67;1.75;;;19.70;98.50;;;;;;4140733;28;20038;-68
2024/04/07 02:17:55;;;;;;;6.05;2.25;;;19.70;98.70;;;;;;4142720;28;20040;-68
2024/04/07 02:19:57;;;;;;;9.25;1.90;;;19.70;99.20;;;;;;4140983;28;20109;-68
2024/04/07 02:21:58;;;;;;;6.53;2.17;;;19.60;98.90;;;;;;4124652;28;20050;-68
2024/04/07 02:23:58;;;;;;;6.07;1.70;;;19.60;99.30;;;;;;4135125;28;20383;-68
2024/04/07 02:25:59;;;;;;;6.82;1.92;;;19.60;99.50;;;;;;4137139;28;20046;-68
2024/04/07 02:28:00;;;;;;;6.93;1.90;;;19.60;99.70;;;;;;4144363;28;20030;-58
2024/04/07 02:30:01;;;;;;;5.55;1.90;;;19.60;99.90;;;;;;4144014;28;20045;-58
2024/04/07 02:32:02;;;;;;;6.80;1.70;;;19.50;99.90;;;;;;4152873;28;20045;-59
2024/04/07 02:34:02;;;;;;;6.03;1.95;;;19.50;99.90;;;;;;4138223;28;20030;-58
2024/04/07 02:36:03;;;;;;;7.63;1.90;;;19.50;99.90;;;;;;4142853;28;20092;-59
2024/04/07 02:38:04;;;;;;;6.28;2.28;;;19.40;99.90;;;;;;4131011;28;20043;-58
2024/04/07 02:40:08;;;;;;;6.50;1.90;;;19.40;99.90;;;;;;4124847;28;20041;-60
2024/04/07 02:42:09;;;;;;;4.25;1.88;;;19.40;99.90;;;;;;4129009;28;20026;-58
2024/04/07 02:44:11;;;;;;;5.20;1.98;;;19.40;99.90;;;;;;4132776;28;20498;-59
2024/04/07 02:48:30;;;;;;;5.97;2.00;;;19.40;99.90;;;;;;4145745;28;20363;-58
2024/04/07 02:50:32;;;;;;;4.78;1.90;;;19.30;99.90;;;;;;4138544;28;20041;-58
2024/04/07 02:52:32;;;;;;;4.97;2.03;;;19.30;99.90;;;;;;4141009;28;20471;-59
2024/04/07 02:54:33;;;;;;;6.35;1.77;;;19.30;99.90;;;;;;4131508;28;20038;-62
2024/04/07 02:56:33;;;;;;;6.50;2.40;;;19.20;99.90;;;;;;4137374;28;20145;-59
2024/04/07 02:58:35;;;;;;;4.15;1.73;;;19.20;99.90;;;;;;4142463;28;20506;-59
2024/04/07 03:00:35;;;;;;;11.05;2.42;;;19.10;99.90;;;;;;4145555;28;20479;-59
2024/04/07 03:02:36;;;;;;;6.45;2.33;;;19.10;99.90;;;;;;4136559;28;20034;-59
2024/04/07 03:04:36;;;;;;;7.80;2.30;;;19.00;99.90;;;;;;4146353;28;20367;-59
2024/04/07 03:06:37;;;;;;;7.47;2.40;;;19.00;99.90;;;;;;4141317;28;20101;-58
2024/04/07 03:08:38;;;;;;;4.40;2.17;;;19.00;99.90;;;;;;4134266;28;20035;-58
2024/04/07 03:10:39;;;;;;;7.43;2.10;;;18.90;99.90;;;;;;4134725;28;20440;-58
2024/04/07 03:12:40;;;;;;;7.72;2.25;;;18.70;99.90;;;;;;4147496;28;20359;-58
2024/04/07 03:14:40;;;;;;;9.68;2.50;;;18.70;99.90;;;;;;4140078;28;20029;-58
2024/04/07 03:16:41;;;;;;;5.25;1.98;;;18.60;99.90;;;;;;4146388;28;20469;-58
2024/04/07 03:18:42;;;;;;;5.32;1.63;;;18.60;99.90;;;;;;4154363;28;20026;-58
2024/04/07 03:20:42;;;;;;;6.43;2.10;;;18.60;99.90;;;;;;4142663;28;20109;-58
2024/04/07 03:22:43;;;;;;;8.40;2.03;;;18.60;99.90;;;;;;4145949;28;20030;-58
2024/04/07 03:24:44;;;;;;;11.05;2.58;;;18.50;99.90;;;;;;4135719;28;20041;-58
2024/04/07 03:26:44;;;;;;;6.47;1.75;;;18.50;99.90;;;;;;4145093;28;20037;-58
2024/04/07 03:28:47;;;;;;;5.80;1.52;;;18.40;99.90;;;;;;4137964;28;20463;-58
2024/04/07 03:30:48;;;;;;;6.25;1.90;;;18.40;99.90;;;;;;4136295;28;20030;-59
2024/04/07 03:32:49;;;;;;;9.40;2.55;;;18.30;99.90;;;;;;4146380;28;20501;-58
2024/04/07 03:34:50;;;;;;;5.72;1.85;;;18.30;99.90;;;;;;4142271;28;20037;-58
2024/04/07 03:36:50;;;;;;;5.72;1.50;;;18.30;99.90;;;;;;4145611;28;20045;-59
2024/04/07 03:38:51;;;;;;;4.35;1.65;;;18.30;99.90;;;;;;4141210;28;20043;-65
2024/04/07 03:40:51;;;;;;;5.25;1.30;;;18.30;99.90;;;;;;4133910;28;20069;-65
2024/04/07 03:42:52;;;;;;;5.60;1.40;;;18.30;99.90;;;;;;4146759;28;20034;-64
2024/04/07 03:44:53;;;;;;;5.32;2.13;;;18.20;99.90;;;;;;4145387;28;20034;-65
2024/04/07 03:46:57;;;;;;;4.43;1.58;;;18.30;99.90;;;;;;4141626;28;20064;-65
2024/04/07 03:48:58;;;;;;;2.63;1.27;;;18.30;99.90;;;;;;4140027;28;20042;-65
2024/04/07 03:50:58;;;;;;;2.22;1.33;;;18.40;99.90;;;;;;4131453;28;20031;-64
2024/04/07 03:52:59;;;;;;;3.83;1.17;;;18.40;99.90;;;;;;4132927;28;20022;-65
2024/04/07 03:55:02;;;;;;;3.95;1.27;;;18.40;99.90;;;;;;4146245;28;20049;-65
2024/04/07 03:57:02;;;;;;;2.42;1.17;;;18.40;99.90;;;;;;4137352;28;20482;-65
2024/04/07 03:59:03;;;;;;;2.45;1.23;;;18.50;99.90;;;;;;4142984;28;20065;-64
2024/04/07 04:01:04;;;;;;;1.73;0.80;;;18.50;99.90;;;;;;4140322;28;20041;-65
2024/04/07 04:03:06;;;;;;;2.95;1.25;;;18.60;99.90;;;;;;4142819;28;20026;-64
2024/04/07 04:05:07;;;;;;;1.50;1.00;;;18.60;99.90;;;;;;4135944;28;20077;-65
2024/04/07 04:07:08;;;;;;;4.50;1.38;;;18.60;99.90;;;;;;4140840;28;20046;-65
2024/04/07 04:09:09;;;;;;;3.75;1.13;;;18.60;99.90;;;;;;4137629;28;20037;-65
2024/04/07 04:11:11;;;;;;;4.88;1.10;;;18.60;99.90;;;;;;4130236;28;20483;-65
2024/04/07 04:13:12;;;;;;;2.15;0.95;;;18.60;99.90;;;;;;4137393;28;20038;-65
2024/04/07 04:15:12;;;;;;;2.72;1.15;;;18.70;99.90;;;;;;4134731;28;20493;-65
2024/04/07 04:17:16;;;;;;;3.08;1.30;;;18.60;99.90;;;;;;4142026;28;20117;-65
2024/04/07 04:19:17;;;;;;;4.57;1.40;;;18.70;99.90;;;;;;4136670;28;20053;-64
2024/04/07 04:21:17;;;;;;;3.60;1.33;;;18.60;99.90;;;;;;4135494;28;20034;-66
2024/04/07 04:23:18;;;;;;;4.82;1.65;;;18.60;99.90;;;;;;4132481;28;20519;-65
2024/04/07 04:25:20;;;;;;;5.00;1.60;;;18.60;99.90;;;;;;4138508;28;20041;-65
2024/04/07 04:27:21;;;;;;;3.50;1.23;;;18.50;99.90;;;;;;4139858;28;20347;-65
2024/04/07 04:29:22;;;;;;;4.35;1.23;;;18.50;99.90;;;;;;4142824;28;20486;-65
2024/04/07 04:31:22;;;;;;;3.35;1.33;;;18.50;99.90;;;;;;4137787;28;20038;-65
2024/04/07 04:33:26;;;;;;;2.10;1.00;;;18.40;99.90;;;;;;4138405;28;20023;-65
2024/04/07 04:35:27;;;;;;;3.15;0.77;;;18.50;99.90;;;;;;4138533;28;20038;-65
2024/04/07 04:37:28;;;;;;;2.22;0.98;;;18.50;99.90;;;;;;4139727;28;20083;-65
2024/04/07 04:39:28;;;;;;;1.02;0.73;;;18.40;99.90;;;;;;4140884;28;20054;-64
2024/04/07 04:41:29;;;;;;;4.63;1.00;;;18.40;99.90;;;;;;4142509;28;20041;-65
2024/04/07 04:43:29;;;;;;;2.55;0.73;;;18.40;99.90;;;;;;4139010;28;20113;-65
2024/04/07 04:45:30;;;;;;;1.85;0.85;;;18.40;99.90;;;;;;4140511;28;20037;-65
2024/04/07 04:47:30;;;;;;;2.00;0.80;;;18.40;99.90;;;;;;4135213;28;20467;-66
2024/04/07 04:49:31;;;;;;;3.53;0.77;;;18.40;99.90;;;;;;4139316;28;20036;-66
2024/04/07 04:51:32;;;;;;;3.30;0.60;;;18.40;99.90;;;;;;4145688;28;20479;-65
2024/04/07 04:53:32;;;;;;;3.30;1.00;;;18.40;99.90;;;;;;4139037;28;20446;-65
2024/04/07 04:55:33;;;;;;;2.50;0.77;;;18.40;99.90;;;;;;4137091;28;20061;-66
2024/04/07 04:57:33;;;;;;;1.77;0.90;;;18.40;99.90;;;;;;4142981;28;20054;-66
2024/04/07 04:59:34;;;;;;;2.60;0.90;;;18.40;99.90;;;;;;4137368;28;20038;-66
2024/04/07 05:01:35;;;;;;;5.03;1.20;;;18.30;99.90;;;;;;4138282;28;20030;-65
2024/04/07 05:03:35;;;;;;;1.88;0.80;;;18.40;99.90;;;;;;4138979;28;20042;-66
2024/04/07 05:05:36;;;;;;;1.90;0.77;;;18.40;99.90;;;;;;4141907;28;20072;-64
2024/04/07 05:07:37;;;;;;;2.97;1.02;;;18.40;99.90;;;;;;4142974;28;20037;-66
2024/04/07 05:09:37;;;;;;;2.22;0.95;;;18.40;99.90;;;;;;4142975;28;20524;-66
2024/04/07 05:11:38;;;;;;;3.83;0.90;;;18.30;99.90;;;;;;4144666;28;20041;-65
2024/04/07 05:13:39;;;;;;;4.25;1.30;;;18.30;99.90;;;;;;4136272;28;20026;-66
2024/04/07 05:15:40;;;;;;;3.45;0.90;;;18.40;99.90;;;;;;4137660;28;20042;-65
2024/04/07 05:17:41;;;;;;;4.63;1.10;;;18.30;99.90;;;;;;4157669;28;20033;-65
2024/04/07 05:19:45;;;;;;;1.98;0.90;;;18.30;99.90;;;;;;4144357;28;20097;-66
2024/04/07 05:21:47;;;;;;;3.25;0.98;;;18.30;99.90;;;;;;4135329;28;20033;-66
2024/04/07 05:23:50;;;;;;;3.85;1.58;;;18.30;99.90;;;;;;4141679;28;20026;-66
2024/04/07 05:25:51;;;;;;;3.33;0.90;;;18.20;99.90;;;;;;4137255;28;20676;-65
2024/04/07 05:27:52;;;;;;;1.25;0.77;;;18.20;99.90;;;;;;4139840;28;20034;-65
2024/04/07 05:29:53;;;;;;;2.38;1.10;;;18.20;99.90;;;;;;4150902;28;20029;-66
2024/04/07 05:31:53;;;;;;;1.88;0.70;;;18.20;99.90;;;;;;4139302;28;20034;-65
2024/04/07 05:33:57;;;;;;;1.58;0.63;;;18.20;99.90;;;;;;4136825;28;20092;-65
2024/04/07 05:35:58;;;;;;;1.08;0.57;;;18.20;99.90;;;;;;4144148;28;20085;-65
2024/04/07 05:37:59;;;;;;;1.58;1.00;;;18.20;99.90;;;;;;4142662;28;20029;-65
2024/04/07 05:40:00;;;;;;;1.48;0.80;;;18.20;99.90;;;;;;4141010;28;20061;-66
2024/04/07 05:42:00;;;;;;;2.13;0.68;;;18.20;99.90;;;;;;4140837;28;20033;-65
2024/04/07 05:44:01;;;;;;;2.13;0.70;;;18.10;99.90;;;;;;4135332;28;20112;-65
2024/04/07 05:46:07;;;;;;;1.48;0.82;;;18.20;99.90;;;;;;4138681;28;20038;-65
2024/04/07 05:48:07;;;;;;;1.13;0.63;;;18.20;99.90;;;;;;4132092;28;20183;-63
2024/04/07 05:50:08;;;;;;;1.52;0.65;;;18.20;99.90;;;;;;4134004;28;20476;-67
2024/04/07 05:52:08;;;;;;;2.53;0.80;;;18.20;99.90;;;;;;4143899;28;20042;-65
2024/04/07 05:54:09;;;;;;;3.17;0.90;;;18.10;99.90;;;;;;4142346;28;20037;-65
2024/04/07 05:56:11;;;;;;;2.88;0.90;;;18.10;99.90;;;;;;4134406;28;20042;-65
2024/04/07 05:58:12;;;;;;;3.72;1.17;;;18.10;99.90;;;;;;4122453;28;20369;-59
2024/04/07 06:00:13;;;;;;;1.60;0.75;;;18.10;99.90;;;;;;4137555;28;20030;-59
2024/04/07 06:02:14;;;;;;;2.00;0.90;;;18.10;99.90;;;;;;4143467;28;20030;-59
2024/04/07 06:04:15;;;;;;;4.68;1.50;;;18.10;99.90;;;;;;4130471;28;20379;-58
2024/04/07 06:06:15;;;;;;;5.28;0.90;;;18.10;99.90;;;;;;4141462;28;20044;-58
2024/04/07 06:08:16;;;;;;;2.42;0.98;;;18.10;99.90;;;;;;4143800;28;20109;-58
2024/04/07 06:10:17;;;;;;;3.15;0.93;;;18.10;99.90;;;;;;4143970;28;20026;-58
2024/04/07 06:12:18;;;;;;;0.77;0.77;;;18.10;99.90;;;;;;4143601;28;20391;-58
2024/04/07 06:14:19;;;;;;;3.67;1.50;;;18.10;99.90;;;;;;4136999;28;20026;-58
2024/04/07 06:16:19;;;;;;;2.85;1.17;;;18.10;99.90;;;;;;4123854;28;20035;-59
2024/04/07 06:18:20;;;;;;;2.40;1.30;;;18.10;99.90;;;;;;4137972;28;20570;-59
2024/04/07 06:20:21;;;;;;;3.08;1.00;;;18.10;99.90;;;;;;4129048;28;20431;-59
2024/04/07 06:22:22;;;;;;;3.33;1.00;;;18.10;99.90;;;;;;4144369;28;20022;-59
2024/04/07 06:24:22;;;;;;;3.13;1.00;;;18.10;99.90;;;;;;4144695;28;20038;-58
2024/04/07 06:26:23;;;;;;;2.60;1.25;;;18.10;99.90;;;;;;4146099;28;20045;-59
2024/04/07 06:28:24;;;;;;;2.38;1.00;;;18.10;99.90;;;;;;4147373;28;20034;-58
2024/04/07 06:30:24;;;;;;;2.58;1.02;;;18.10;99.90;;;;;;4147375;28;20060;-58
2024/04/07 06:32:26;;;;;;;2.83;0.70;;;18.10;99.90;;;;;;4140640;28;20110;-59
2024/04/07 06:34:26;;;;;;;2.17;1.20;;;18.10;99.90;;;;;;4144288;28;20080;-58
2024/04/07 06:36:27;;;;;;;3.30;1.10;;;18.10;99.90;;;;;;4145798;28;20038;-58
2024/04/07 06:38:28;;;;;;;4.10;1.40;;;18.20;99.90;;;;;;4140886;28;20084;-58
2024/04/07 06:40:28;;;;;;;3.83;0.90;;;18.20;99.90;;;;;;4144582;28;20045;-58
2024/04/07 06:42:32;;;;;;;1.30;0.82;;;18.20;99.90;;;;;;4147174;28;20038;-58
2024/04/07 06:44:33;;;;;;;1.48;0.60;;;18.20;99.90;;;;;;4134342;28;20454;-58
2024/04/07 06:46:33;;;;;;;2.97;0.90;;;18.20;99.90;;;;;;4144886;28;20400;-58
2024/04/07 06:48:34;;;;;;;2.03;0.98;;;18.20;99.90;;;;;;4155270;28;20026;-58
2024/04/07 06:50:35;;;;;;;2.90;0.90;;;18.20;99.90;;;;;;4143129;28;20033;-61
2024/04/07 06:52:35;;;;;;;2.47;0.70;;;18.20;99.90;;;;;;4145167;28;20034;-58
2024/04/07 06:54:36;;;;;;;1.80;0.85;;;18.20;99.90;;;;;;4146076;28;20061;-58
2024/04/07 06:56:36;;;;;;;3.28;1.00;;;18.20;99.90;;;;;;4144387;28;20053;-59
2024/04/07 06:58:37;;;;;;;2.45;0.90;;;18.20;99.90;;;;;;4147871;28;20026;-58
2024/04/07 07:00:39;;;;;;;1.90;1.00;;;18.20;99.90;;;;;;4146638;28;20365;-58
2024/04/07 07:02:39;;;;;;;1.65;0.80;;;18.20;99.90;;;;;;4145997;28;20121;-59
2024/04/07 07:04:40;;;;;;;4.20;1.00;;;18.20;99.90;;;;;;4146652;28;20382;-61
2024/04/07 07:06:41;;;;;;;1.58;0.70;;;18.20;99.90;;;;;;4143633;28;20022;-60
2024/04/07 07:08:42;;;;;;;1.90;0.95;;;18.20;99.90;;;;;;4144304;28;20048;-64
2024/04/07 07:10:58;;;;;;;1.27;0.65;;;18.20;99.90;;;;;;4136679;28;20406;-63
2024/04/07 07:12:59;;;;;;;1.52;0.80;;;18.20;99.90;;;;;;4144125;28;20030;-64
2024/04/07 07:15:00;;;;;;;1.95;0.73;;;18.20;99.90;;;;;;4135585;28;20113;-64
2024/04/07 07:17:03;;;;;;;2.50;0.80;;;18.20;99.90;;;;;;4146573;28;20057;-63
2024/04/07 07:19:07;;;;;;;1.42;1.10;;;18.20;99.90;;;;;;4137110;28;20482;-64
2024/04/07 07:21:07;;;;;;;2.53;0.80;;;18.30;99.90;;;;;;4130061;28;20034;-63
2024/04/07 07:23:08;;;;;;;2.33;1.00;;;18.20;99.90;;;;;;4143973;28;20097;-63
2024/04/07 07:25:09;;;;;;;3.38;1.27;;;18.30;99.90;;;;;;4133600;28;20079;-64
2024/04/07 07:27:12;;;;;;;2.28;0.90;;;18.30;99.90;;;;;;4146881;28;20103;-64
2024/04/07 07:29:13;;;;;;;1.90;0.90;;;18.20;99.90;;;;;;4131078;28;20061;-64
2024/04/07 07:31:19;;;;;;;1.48;0.85;;;18.20;99.90;;;;;;4131395;28;20045;-63
2024/04/07 07:33:20;;;;;;;1.30;0.70;;;18.20;99.90;;;;;;4142364;28;20034;-64
2024/04/07 07:35:21;;;;;;;4.40;1.05;;;18.30;99.90;;;;;;4142166;28;20030;-64
2024/04/07 07:37:25;;;;;;;1.55;1.05;;;18.20;99.90;;;;;;4142232;28;20037;-64
2024/04/07 07:39:25;;;;;;;2.17;1.10;;;18.20;99.90;;;;;;4126185;28;20045;-64
2024/04/07 07:41:26;;;;;;;4.07;1.02;;;18.30;99.90;;;;;;4142748;28;20403;-63
2024/04/07 07:43:26;;;;;;;2.28;1.00;;;18.20;99.90;;;;;;4158124;28;20038;-64
2024/04/07 07:45:27;;;;;;;2.17;0.90;;;18.20;99.90;;;;;;4138959;28;20072;-64
2024/04/07 07:47:32;;;;;;;2.35;0.90;;;18.20;99.90;;;;;;4136992;28;20866;-63
2024/04/07 07:49:33;;;;;;;3.15;0.80;;;18.20;99.90;;;;;;4142348;28;20069;-64
2024/04/07 07:51:33;;;;;;;5.45;1.00;;;18.20;99.90;;;;;;4139535;28;20042;-64
2024/04/07 07:53:34;;;;;;;5.97;1.50;;;18.30;99.90;;;;;;4141184;28;20030;-63
2024/04/07 07:55:35;;;;;;;2.83;1.00;;;18.20;99.90;;;;;;4142988;28;20116;-64
2024/04/07 07:57:36;;;;;;;6.28;1.08;;;18.30;99.90;;;;;;4131200;28;20040;-62
2024/04/07 07:59:36;;;;;;;4.70;0.90;;;18.20;99.90;;;;;;4149535;28;20037;-61
2024/04/07 08:01:37;;;;;;;2.38;1.05;;;18.30;99.90;;;;;;4150195;28;20417;-61
2024/04/07 08:03:40;;;;;;;1.83;1.08;;;18.30;99.90;;;;;;4139709;28;20540;-62
2024/04/07 08:05:41;;;;;;;3.30;0.75;;;18.30;99.90;;;;;;4141291;28;20045;-62
2024/04/07 08:07:44;;;;;;;8.40;1.08;;;18.40;99.90;;;;;;4153144;28;20513;-61
2024/04/07 08:09:45;;;;;;;3.97;1.10;;;18.40;99.90;;;;;;4140290;28;20034;-62
2024/04/07 08:11:45;;;;;;;1.58;0.70;;;18.40;99.90;;;;;;4138058;28;20567;-62
2024/04/07 08:13:46;;;;;;;3.63;1.40;;;18.40;99.90;;;;;;4144018;28;20376;-62
2024/04/07 08:15:50;;;;;;;1.70;1.05;;;18.50;99.90;;;;;;4131940;28;20038;-62
2024/04/07 08:17:51;;;;;;;3.67;1.00;;;18.60;99.90;;;;;;4153103;28;20044;-66
2024/04/07 08:19:57;;;;;;;5.00;1.30;;;18.70;99.90;;;;;;4137057;28;20041;-66
2024/04/07 08:21:58;;;;;;;3.42;1.17;;;18.80;99.90;;;;;;4150670;28;20042;-68
2024/04/07 08:23:59;;;;;;;3.83;0.95;;;18.90;99.90;;;;;;4142664;28;20128;-67
2024/04/07 08:25:59;;;;;;;4.45;1.05;;;19.00;99.90;;;;;;4139809;28;20041;-67
2024/04/07 08:28:01;;;;;;;4.60;1.08;;;19.10;99.90;;;;;;4142637;28;20398;-68
2024/04/07 08:30:03;;;;;;;3.38;1.08;;;19.30;99.90;;;;;;4141813;28;20045;-68
2024/04/07 08:32:04;;;;;;;2.90;1.10;;;19.30;99.90;;;;;;4146050;28;20044;-67
2024/04/07 08:34:05;;;;;;;1.87;1.00;;;19.40;99.90;;;;;;4143315;28;20317;-67
2024/04/07 08:36:06;;;;;;;1.73;0.80;;;19.50;99.90;;;;;;4136080;28;20757;-68
2024/04/07 08:38:07;;;;;;;3.00;1.17;;;19.50;99.90;;;;;;4144835;28;20053;-67
2024/04/07 08:40:08;;;;;;;4.65;1.27;;;19.50;99.90;;;;;;4141111;28;20034;-68
2024/04/07 08:42:13;;;;;;;3.28;0.90;;;19.50;99.90;;;;;;4137614;28;20548;-67
2024/04/07 08:44:15;;;;;;;2.53;0.95;;;19.40;99.90;;;;;;4143053;28;20080;-68
2024/04/07 08:46:19;;;;;;;4.32;1.20;;;19.40;99.90;;;;;;4136325;28;20483;-67
2024/04/07 08:48:23;;;;;;;2.65;1.00;;;19.50;99.90;;;;;;4137983;28;20030;-67
2024/04/07 08:50:26;;;;;;;4.07;0.80;;;19.50;99.90;;;;;;4126927;28;20041;-67
2024/04/07 08:52:28;;;;;;;2.80;1.10;;;19.40;99.90;;;;;;4134569;28;20026;-68
2024/04/07 08:54:30;;;;;;;3.55;1.20;;;19.40;99.90;;;;;;4140497;28;20068;-67
2024/04/07 08:56:37;;;;;;;2.90;1.03;;;19.40;99.90;;;;;;4139394;28;20052;-67
2024/04/07 08:58:42;;;;;;;3.03;0.80;;;19.40;99.90;;;;;;4142914;28;20048;-70
2024/04/07 09:00:45;;;;;;;1.90;0.90;;;19.40;99.90;;;;;;4140800;28;20038;-68
2024/04/07 09:02:47;;;;;;;1.70;0.82;;;19.40;99.90;;;;;;4138353;28;20517;-67
2024/04/07 09:04:47;;;;;;;3.50;0.90;;;19.40;99.90;;;;;;4138830;28;20030;-68
2024/04/07 09:06:48;;;;;;;2.17;0.90;;;19.30;99.90;;;;;;4140083;28;20816;-68
2024/04/07 09:08:49;;;;;;;2.53;0.80;;;19.30;99.90;;;;;;4138598;28;20033;-67
2024/04/07 09:10:50;;;;;;;5.07;1.27;;;19.30;99.90;;;;;;4137140;28;20124;-67
2024/04/07 09:12:52;;;;;;;3.63;1.35;;;19.30;99.90;;;;;;4137347;28;20371;-65
2024/04/07 09:14:52;;;;;;;4.70;1.27;;;19.30;99.90;;;;;;4144234;28;20041;-67
2024/04/07 09:17:06;;;;;;;4.32;1.27;;;19.30;99.90;;;;;;4136011;28;20466;-67
2024/04/07 09:19:07;;;;;;;4.32;1.00;;;19.40;99.90;;;;;;4142425;28;20029;-67
2024/04/07 09:21:22;;;;;;;2.60;0.63;;;19.40;99.90;;;;;;4134523;28;20081;-67
2024/04/07 09:23:22;;;;;;;2.13;0.88;;;19.40;99.90;;;;;;4152351;28;20026;-66
2024/04/07 09:25:23;;;;;;;4.97;1.35;;;19.40;99.90;;;;;;4139031;28;20042;-67
2024/04/07 09:27:25;;;;;;;3.97;1.10;;;19.40;99.90;;;;;;4137584;28;20106;-67
2024/04/07 09:29:29;;;;;;;5.38;0.90;;;19.40;99.90;;;;;;4140322;28;20121;-66
2024/04/07 09:31:30;;;;;;;3.35;1.00;;;19.30;99.90;;;;;;4131896;28;20513;-67
2024/04/07 09:33:31;;;;;;;6.55;1.20;;;19.40;99.90;;;;;;4134669;28;20034;-68
2024/04/07 09:35:33;;;;;;;7.38;1.00;;;19.40;99.90;;;;;;4129880;28;20026;-67
2024/04/07 09:37:40;;;;;;;4.88;1.10;;;19.40;99.90;;;;;;4135028;28;20025;-67
2024/04/07 09:39:43;;;;;;;2.45;0.85;;;19.40;99.90;;;;;;4131664;28;20538;-67
2024/04/07 09:41:46;;;;;;;1.88;0.88;;;19.40;99.90;;;;;;4135285;28;20112;-67
2024/04/07 09:43:51;;;;;;;1.80;0.75;;;19.40;99.90;;;;;;4136101;28;20037;-66
2024/04/07 09:45:53;;;;;;;3.30;1.00;;;19.50;99.90;;;;;;4140433;28;20495;-67
2024/04/07 09:47:58;;;;;;;1.33;0.63;;;19.50;99.90;;;;;;4132138;28;20430;-66
2024/04/07 09:50:22;;;;;;;3.38;1.15;;;19.50;99.90;;;;;;4134312;28;20398;-67
2024/04/07 09:52:30;;;;;;;2.47;0.65;;;19.50;99.90;;;;;;4152490;28;20046;-64
2024/04/07 09:54:39;;;;;;;4.25;1.10;;;19.50;99.90;;;;;;4142619;28;20041;-67
2024/04/07 09:56:42;;;;;;;2.70;1.02;;;19.40;99.90;;;;;;4134706;28;20046;-67
2024/04/07 09:58:43;;;;;;;3.63;1.10;;;19.40;99.90;;;;;;4134763;28;20046;-67
2024/04/07 10:00:45;;;;;;;3.63;1.23;;;19.40;99.90;;;;;;4132972;28;20482;-67
2024/04/07 10:02:45;;;;;;;3.78;1.20;;;19.40;99.90;;;;;;4130189;28;20501;-67
2024/04/07 10:04:46;;;;;;;3.80;1.23;;;19.30;99.90;;;;;;4135755;28;20041;-67
2024/04/07 10:06:48;;;;;;;2.73;0.93;;;19.40;99.90;;;;;;4131811;28;20054;-67
2024/04/07 10:08:51;;;;;;;2.50;0.93;;;19.40;99.90;;;;;;4141075;28;20257;-67
2024/04/07 10:10:51;;;;;;;2.17;0.77;;;19.50;99.90;;;;;;4138593;28;20482;-67
2024/04/07 10:12:53;;;;;;;1.27;0.55;;;19.40;99.90;;;;;;4140807;28;20025;-67
2024/04/07 10:14:54;;;;;;;9.32;1.10;;;19.40;99.90;;;;;;4141960;28;20072;-66
2024/04/07 10:16:56;;;;;;;2.47;0.88;;;19.50;99.90;;;;;;4133343;28;20026;-66
2024/04/07 10:18:59;;;;;;;2.90;0.70;;;19.60;99.90;;;;;;4142078;28;20030;-67
2024/04/07 10:20:59;;;;;;;3.25;0.95;;;19.60;99.90;;;;;;4135605;28;20478;-67
2024/04/07 10:23:03;;;;;;;1.85;0.85;;;19.70;99.90;;;;;;4122400;28;20046;-67
2024/04/07 10:25:06;;;;;;;2.38;0.82;;;19.70;99.90;;;;;;4143085;28;20030;-67
2024/04/07 10:27:11;;;;;;;2.00;0.70;;;19.70;99.90;;;;;;4135028;28;20577;-67
2024/04/07 10:29:16;;;;;;;1.67;0.75;;;19.80;99.90;;;;;;4137384;28;20034;-67
2024/04/07 10:31:38;;;;;;;1.35;0.82;;;19.90;99.90;;;;;;4122527;28;20034;-67
2024/04/07 10:33:39;;;;;;;2.22;0.85;;;19.90;99.90;;;;;;4130782;28;20487;-67
2024/04/07 10:35:55;;;;;;;3.08;1.27;;;20.00;99.90;;;;;;4132709;28;20117;-68